Nearby METAR Reports

 

EHAM - Amsterdam/Schiph, Netherlands
Distance from station: WNW 24km
Updated: 23/06/2018 15:55
Clear
Clear
 Wind from WNW
Wind: WNW 17 km/h
Temperature: 18°C
Dew Point: 8°C
Humidity: 52%
Barometer: 1026 hPa
Summary: Clear
Visibility: greater than 10 km
2018/06/23 13:55 EHAM 231355Z 29009KT 250V330 CAVOK 18/08 Q1026 NOSIG
EHDL - Deelen Rnlafb, Netherlands
Distance from station: ESE 55km
Updated: 23/06/2018 15:55
Overcast
Overcast
 Wind from WNW
Wind: WNW 15 km/h
Temperature: 18°C
Dew Point: 9°C
Humidity: 56%
Barometer: 1026 hPa
Clouds: Overcast
Visibility: 10 km
Cloud details: Few Clouds 1128 m
Partly cloudy 1250 m
Overcast 1433 m
2018/06/23 13:55 EHDL 231355Z AUTO 30008KT 280V030 9999 FEW037 SCT041 OVC047 18/09 Q1026 BLU
EHRD - Rotterdam Airpor, Netherlands
Distance from station: SW 55km
Updated: 23/06/2018 15:55
Partly cloudy
Partly cloudy
 Wind from W
Wind: W 11 km/h
Temperature: 19°C
Dew Point: 8°C
Humidity: 49%
Barometer: 1026 hPa
Clouds: Partly cloudy
Visibility: 10 km
2018/06/23 13:55 EHRD 231355Z AUTO 27006KT 230V340 9999 NSC 19/08 Q1026 NOSIG
 
EHGR - Gilze-Rijen Rnla, Netherlands
Distance from station: S 75km
Updated: 23/06/2018 15:55
Mostly cloudy
Mostly cloudy
 Wind from varies
Wind: varies 17 km/h, Gust: 39 km/h
Temperature: 22°C
Dew Point: 6°C
Humidity: 36%
Barometer: 1026 hPa
Clouds: Mostly cloudy
Visibility: 10 km
Cloud details: Mostly cloudy 1463 m
Mostly cloudy 1707 m
2018/06/23 13:55 EHGR 231355Z AUTO VRB09G21KT 9999 BKN048 BKN056 22/06 Q1026 BLU
EHVK - Volkel Rnlafb, Netherlands
Distance from station: SSE 78km
Updated: 23/06/2018 15:55
Mostly cloudy
Mostly cloudy
 Wind from W
Wind: W 7 km/h
Temperature: 18°C
Dew Point: 10°C
Humidity: 60%
Barometer: 1026 hPa
Clouds: Mostly cloudy
Visibility: 10 km
Cloud details: Partly cloudy 884 m
Mostly cloudy 1006 m
Mostly cloudy 1219 m
2018/06/23 13:55 EHVK 231355Z AUTO 28004KT 250V360 9999 SCT029 BKN033 BKN040 18/10 Q1026 BLU
EHKD - De Kooy (navy), Netherlands
Distance from station: NNW 80km
Updated: 23/06/2018 15:55
Overcast
Overcast
 Wind from W
Wind: W 19 km/h
Temperature: 17°C
Dew Point: 9°C
Humidity: 59%
Barometer: 1026 hPa
Clouds: Overcast
Visibility: 10 km
Cloud details: Few Clouds 792 m
Overcast 1585 m
2018/06/23 13:55 EHKD 231355Z AUTO 27010KT 220V320 9999 FEW026 OVC052 17/09 Q1026 BLU 30012KT 9999 FEW023 BKN040
 
EHEH - Eindhoven Rnlafb, Netherlands
Distance from station: SSE 89km
Updated: 23/06/2018 15:55
Mostly cloudy
Mostly cloudy
 Wind from varies
Wind: varies 4 km/h
Temperature: 19°C
Dew Point: 10°C
Humidity: 56%
Barometer: 1026 hPa
Clouds: Mostly cloudy
Visibility: 10 km
Cloud details: Few Clouds 1006 m
Partly cloudy 1463 m
Mostly cloudy 1615 m
2018/06/23 13:55 EHEH 231355Z AUTO VRB02KT 9999 FEW033 SCT048 BKN053 19/10 Q1026 BLU 31007KT 9999 SCT025 BKN027
EDLV - Niederrhein, Germany
Distance from station: SE 100km
Updated: 23/06/2018 15:50
Mostly cloudy
Mostly cloudy
 Wind from WNW
Wind: WNW 15 km/h
Temperature: 18°C
Dew Point: 10°C
Humidity: 60%
Barometer: 1026 hPa
Clouds: Mostly cloudy
Visibility: 10 km
Cloud details: Few Clouds 914 m
Mostly cloudy 1829 m
2018/06/23 13:50 EDLV 231350Z 29008KT 250V350 9999 FEW030 BKN060 18/10 Q1026
EHQE - Hoorn-A Sea, Netherlands
Distance from station: NW 100km
Updated: 23/06/2018 15:55
Few Clouds
Few Clouds
 Wind from SSW
Wind: SSW 19 km/h
Temperature: 14°C
Dew Point: 10°C
Humidity: 77%
Barometer: 1026 hPa
Clouds: Few Clouds
Visibility: 10 km
Cloud details: Few Clouds 457 m
2018/06/23 13:55 EHQE 231355Z AUTO 20010KT 9999 FEW015 14/10 Q1026 W///H///
 
EHWO - Woensdrecht Rnla, Netherlands
Distance from station: SSW 103km
Updated: 23/06/2018 15:55
Overcast
Overcast
 Wind from NW
Wind: NW 11 km/h
Temperature: 20°C
Dew Point: 7°C
Humidity: 43%
Barometer: 1026 hPa
Clouds: Overcast
Visibility: 10 km
Cloud details: Overcast 6706 m
2018/06/23 13:55 EHWO 231355Z AUTO 31006KT 200V310 9999 OVC220 20/07 Q1026 BLU
EHSC - Goeree Le Sea, Netherlands
Distance from station: WSW 104km
Updated: 23/06/2018 15:55

 Wind from W
Wind: W 22 km/h
Temperature: 15°C
Dew Point: 11°C
Humidity: 77%
Barometer: 1026 hPa
Visibility: 10 km
2018/06/23 13:55 EHSC 231355Z AUTO 27012KT 9999 ///////// 15/11 Q1026 W16/H10
EHVL - Vlieland Island, Netherlands
Distance from station: N 112km
Updated: 23/06/2018 15:55
Overcast
Overcast
 Wind from W
Wind: W 17 km/h
Temperature: 17°C
Dew Point: 10°C
Humidity: 64%
Barometer: 1026 hPa
Clouds: Overcast
Visibility: 10 km
Cloud details: Overcast 3658 m
2018/06/23 13:55 EHVL 231355Z AUTO 28009KT 9999 OVC120 17/10 Q1026 BLU
 
EHLW - Leeuwarden Rnlaf, Netherlands
Distance from station: NNE 118km
Updated: 23/06/2018 15:55
Overcast
Overcast
 Wind from WNW
Wind: WNW 24 km/h
Temperature: 17°C
Dew Point: 9°C
Humidity: 59%
Barometer: 1025 hPa
Clouds: Overcast
Visibility: 10 km
Cloud details: Partly cloudy 823 m
Overcast 3962 m
2018/06/23 13:55 EHLW 231355Z AUTO 30013KT 270V350 9999 SCT027 OVC130 17/09 Q1025 BLU
EBBL - Kleine-Brogel(Ba, Belgium
Distance from station: SSE 121km
Updated: 23/06/2018 15:55
Overcast
Overcast
 Wind from varies
Wind: varies 2 km/h
Temperature: 18°C
Dew Point: 8°C
Humidity: 52%
Barometer: 1027 hPa
Clouds: Overcast
Visibility: 10 km
Cloud details: Overcast 1128 m
2018/06/23 13:55 EBBL 231355Z AUTO VRB01KT 9999 OVC037/// 18/08 Q1027 BLU
EHPG - P11-B Sea, Netherlands
Distance from station: W 121km
Updated: 23/06/2018 15:55
Partly cloudy
Partly cloudy
 Wind from W
Wind: W 17 km/h
Temperature: 14°C
Dew Point: 11°C
Humidity: 82%
Barometer: 1026 hPa
Clouds: Partly cloudy
Visibility: 10 km
2018/06/23 13:55 EHPG 231355Z AUTO 26009KT 200V310 9999 NSC 14/11 Q1026 W///H///
 
EBAW - Antwerp/Deurne, Belgium
Distance from station: SSW 123km
Updated: 23/06/2018 15:50
Clear
Clear
 Wind from NW
Wind: NW 15 km/h
Temperature: 21°C
Dew Point: 6°C
Humidity: 38%
Barometer: 1027 hPa
Summary: Clear
Visibility: greater than 10 km
2018/06/23 13:50 EBAW 231350Z 31008KT 230V350 CAVOK 21/06 Q1027 NOSIG
EHSA - Euro Platform, Netherlands
Distance from station: W 127km
Updated: 23/06/2018 15:55

 Wind from WSW
Wind: WSW 22 km/h
Temperature: 15°C
Dew Point: 12°C
Humidity: 82%
Barometer: 1027 hPa
2018/06/23 13:55 EHSA 231355Z AUTO 24012KT //// // ///////// 15/12 Q1027 RE// W14/H11
EBDT - Schaffen, Belgium
Distance from station: S 135km
Updated: 23/06/2018 15:55
Overcast
Overcast
 Wind from varies
Wind: varies 4 km/h
Temperature: 18°C
Dew Point: 9°C
Humidity: 56%
Barometer: 1027 hPa
Clouds: Overcast
Visibility: 10 km
Cloud details: Few Clouds 1311 m
Overcast 1524 m
2018/06/23 13:55 EBDT 231355Z AUTO VRB02KT 9999 FEW043/// OVC050/// 18/09 Q1027 BLU
 
EHFS - Vlissingen, Netherlands
Distance from station: SW 135km
Updated: 23/06/2018 15:55
Partly cloudy
Partly cloudy
 Wind from W
Wind: W 24 km/h
Temperature: 18°C
Dew Point: 10°C
Humidity: 60%
Barometer: 1027 hPa
Clouds: Partly cloudy
Visibility: 10 km
2018/06/23 13:55 EHFS 231355Z AUTO 27013KT 240V310 9999 NSC 18/10 Q1027 W///H///
EHGG - Groningen/Eelde, Netherlands
Distance from station: NE 139km
Updated: 23/06/2018 15:55
Mostly cloudy
Mostly cloudy
 Wind from NNW
Wind: NNW 24 km/h
Temperature: 16°C
Dew Point: 9°C
Humidity: 63%
Barometer: 1025 hPa
Clouds: Mostly cloudy
Visibility: 10 km
Cloud details: Mostly cloudy 823 m
Mostly cloudy 975 m
2018/06/23 13:55 EHGG 231355Z AUTO 33013KT 280V010 9999 BKN027 BKN032 16/09 Q1025 TEMPO 31015G25KT